createdAt,value
2018-08-22T00:01:10.715Z,25.17
2018-08-22T00:03:39.836Z,25.35
2018-08-22T00:06:09.058Z,25.06
2018-08-22T00:08:45.390Z,25.28
2018-08-22T00:11:15.016Z,25.17
2018-08-22T00:13:44.815Z,25.37
2018-08-22T00:16:13.982Z,25.24
2018-08-22T00:18:43.167Z,25.21
2018-08-22T00:21:12.292Z,25.19
2018-08-22T00:23:41.382Z,24.74
2018-08-22T00:26:10.556Z,24.82
2018-08-22T00:28:39.709Z,25.03
2018-08-22T00:31:08.846Z,24.86
2018-08-22T00:33:37.957Z,24.68
2018-08-22T00:36:07.277Z,24.65
2018-08-22T00:38:36.392Z,24.85
2018-08-22T00:41:05.507Z,24.91
2018-08-22T00:43:34.608Z,24.25
2018-08-22T00:46:03.793Z,24.33
2018-08-22T00:48:32.888Z,24.73
2018-08-22T00:51:02.112Z,24.43
2018-08-22T00:53:31.228Z,24.33
2018-08-22T00:56:00.375Z,24.65
2018-08-22T00:58:29.440Z,24.47
2018-08-22T01:00:58.647Z,24.12
2018-08-22T01:03:27.786Z,24.18
2018-08-22T01:05:56.918Z,24.19
2018-08-22T01:08:26.051Z,24.36
2018-08-22T01:10:55.197Z,24.38
2018-08-22T01:13:24.296Z,23.83
2018-08-22T01:15:53.587Z,24.21
2018-08-22T01:18:22.650Z,24.20
2018-08-22T01:20:51.837Z,24.07
2018-08-22T01:23:20.993Z,24.22
2018-08-22T01:25:50.168Z,24.15
2018-08-22T01:28:19.322Z,24.00
2018-08-22T01:30:48.409Z,24.13
2018-08-22T01:33:17.507Z,24.43
2018-08-22T01:35:46.666Z,24.31
2018-08-22T01:38:15.839Z,23.88
2018-08-22T01:40:44.992Z,24.09
2018-08-22T01:43:14.163Z,23.64
2018-08-22T01:45:43.354Z,23.61
2018-08-22T01:48:12.470Z,23.76
2018-08-22T01:50:41.692Z,23.71
2018-08-22T01:53:10.821Z,23.81
2018-08-22T01:55:40.013Z,23.59
2018-08-22T01:58:09.108Z,23.54
2018-08-22T02:00:38.249Z,23.79
2018-08-22T02:03:07.351Z,23.63
2018-08-22T02:05:36.505Z,23.77
2018-08-22T02:08:05.917Z,23.62
2018-08-22T02:10:35.173Z,23.74
2018-08-22T02:13:04.470Z,23.61
2018-08-22T02:15:33.745Z,23.72
2018-08-22T02:18:03.372Z,23.45
2018-08-22T02:20:32.516Z,23.61
2018-08-22T02:23:01.795Z,23.60
2018-08-22T02:25:31.050Z,23.56
2018-08-22T02:28:00.225Z,23.50
2018-08-22T02:30:29.373Z,23.52
2018-08-22T02:32:58.561Z,23.47
2018-08-22T02:35:27.653Z,23.23
2018-08-22T02:37:56.900Z,23.23
2018-08-22T02:40:26.028Z,23.22
2018-08-22T02:42:55.221Z,23.25
2018-08-22T02:45:24.334Z,23.05
2018-08-22T02:47:53.510Z,23.17
2018-08-22T02:50:22.669Z,22.97
2018-08-22T02:52:51.799Z,23.44
2018-08-22T02:55:20.880Z,23.26
2018-08-22T02:57:50.122Z,22.97
2018-08-22T03:00:19.349Z,22.96
2018-08-22T03:02:48.511Z,22.77
2018-08-22T03:05:17.632Z,22.97
2018-08-22T03:07:46.818Z,22.82
2018-08-22T03:10:15.905Z,22.56
2018-08-22T03:12:45.209Z,23.05
2018-08-22T03:15:14.383Z,22.73
2018-08-22T03:17:44.093Z,23.02
2018-08-22T03:20:13.336Z,22.93
2018-08-22T03:22:42.588Z,22.75
2018-08-22T03:25:11.669Z,22.81
2018-08-22T03:27:40.891Z,22.78
2018-08-22T03:30:09.994Z,22.59
2018-08-22T03:32:39.238Z,22.75
2018-08-22T03:35:08.491Z,22.76
2018-08-22T03:37:37.721Z,22.69
2018-08-22T03:40:06.843Z,22.67
2018-08-22T03:42:36.029Z,22.60
2018-08-22T03:45:05.311Z,22.68
2018-08-22T03:47:34.558Z,22.50
2018-08-22T03:50:03.713Z,22.34
2018-08-22T03:52:32.857Z,22.39
2018-08-22T03:55:02.215Z,22.02
2018-08-22T03:57:31.405Z,21.73
2018-08-22T04:00:00.587Z,21.85
2018-08-22T04:02:29.787Z,22.07
2018-08-22T04:04:58.971Z,21.89
2018-08-22T04:07:28.235Z,22.08
2018-08-22T04:09:57.427Z,22.14
2018-08-22T04:12:26.595Z,21.93
2018-08-22T04:14:55.747Z,22.09
2018-08-22T04:17:29.913Z,22.03
2018-08-22T04:19:59.054Z,21.90
2018-08-22T04:22:28.283Z,21.97
2018-08-22T04:24:57.629Z,21.23
2018-08-22T04:27:26.828Z,21.73
2018-08-22T04:29:55.954Z,22.01
2018-08-22T04:32:25.306Z,21.05
2018-08-22T04:34:54.495Z,21.16
2018-08-22T04:37:23.752Z,21.68
2018-08-22T04:39:53.015Z,21.66
2018-08-22T04:42:22.211Z,21.44
2018-08-22T04:44:51.395Z,21.76
2018-08-22T04:47:20.638Z,21.71
2018-08-22T04:49:49.861Z,21.89
2018-08-22T04:52:19.381Z,21.71
2018-08-22T04:54:48.820Z,21.67
2018-08-22T04:57:18.080Z,21.85
2018-08-22T04:59:47.285Z,21.66
2018-08-22T05:02:16.385Z,21.91
2018-08-22T05:04:45.620Z,21.22
2018-08-22T05:07:14.921Z,21.55
2018-08-22T05:09:44.218Z,21.33
2018-08-22T05:12:13.592Z,21.57
2018-08-22T05:14:42.913Z,21.94
2018-08-22T05:17:12.101Z,21.89
2018-08-22T05:19:41.386Z,22.22
2018-08-22T05:22:10.574Z,22.08
2018-08-22T05:24:39.880Z,22.27
2018-08-22T05:27:09.170Z,21.99
2018-08-22T05:29:38.507Z,22.32
2018-08-22T05:32:07.697Z,22.17
2018-08-22T05:34:37.090Z,22.16
2018-08-22T05:37:06.421Z,22.62
2018-08-22T05:39:35.665Z,22.74
2018-08-22T05:42:04.844Z,22.60
2018-08-22T05:44:34.150Z,22.11
2018-08-22T05:47:03.339Z,21.92
2018-08-22T05:49:32.607Z,22.02
2018-08-22T05:52:01.764Z,22.50
2018-08-22T05:54:31.070Z,22.24
2018-08-22T05:57:00.293Z,23.20
2018-08-22T05:59:29.535Z,23.10
2018-08-22T06:01:58.762Z,23.19
2018-08-22T06:04:28.234Z,23.22
2018-08-22T06:06:57.624Z,23.47
2018-08-22T06:09:26.973Z,23.58
2018-08-22T06:11:59.403Z,24.01
2018-08-22T06:14:30.567Z,24.08
2018-08-22T06:17:00.772Z,24.23
2018-08-22T06:19:30.411Z,23.89
2018-08-22T06:22:00.060Z,23.67
2018-08-22T06:24:29.974Z,23.75
2018-08-22T06:26:59.677Z,23.74
2018-08-22T06:29:29.441Z,23.28
2018-08-22T06:31:59.050Z,23.90
2018-08-22T06:34:29.057Z,24.09
2018-08-22T06:36:59.303Z,24.15
2018-08-22T06:39:29.130Z,24.31
2018-08-22T06:41:58.706Z,24.34
2018-08-22T06:44:28.369Z,24.54
2018-08-22T06:46:58.427Z,24.16
2018-08-22T06:49:28.943Z,24.24
2018-08-22T06:52:00.106Z,24.74
2018-08-22T06:54:30.562Z,24.56
2018-08-22T06:57:01.324Z,24.67
2018-08-22T06:59:32.377Z,24.20
2018-08-22T07:02:02.626Z,24.39
2018-08-22T07:04:32.633Z,25.12
2018-08-22T07:07:04.501Z,24.72
2018-08-22T07:09:38.970Z,25.32
2018-08-22T07:12:11.209Z,25.35
2018-08-22T07:14:43.297Z,25.48
2018-08-22T07:17:14.774Z,26.11
2018-08-22T07:19:44.853Z,26.02
2018-08-22T07:22:15.569Z,25.98
2018-08-22T07:24:46.173Z,26.08
2018-08-22T07:27:15.882Z,26.78
2018-08-22T07:29:47.439Z,26.99
2018-08-22T07:32:17.148Z,26.89
2018-08-22T07:35:05.948Z,26.76
2018-08-22T07:37:35.095Z,26.33
2018-08-22T07:40:04.440Z,26.95
2018-08-22T07:42:33.703Z,27.07
2018-08-22T07:45:02.991Z,27.68
2018-08-22T07:47:32.238Z,26.80
2018-08-22T07:50:01.807Z,27.43
2018-08-22T07:52:31.162Z,28.11
2018-08-22T07:55:00.641Z,27.95
2018-08-22T07:57:29.817Z,28.03
2018-08-22T07:59:59.184Z,26.60
2018-08-22T08:02:28.521Z,27.64
2018-08-22T08:04:57.795Z,26.58
2018-08-22T08:07:27.026Z,27.19
2018-08-22T08:09:56.250Z,27.61
2018-08-22T08:12:32.660Z,28.57
2018-08-22T08:15:05.096Z,28.58
2018-08-22T08:17:34.189Z,27.95
2018-08-22T08:20:03.174Z,27.71
2018-08-22T08:22:32.129Z,28.59
2018-08-22T08:25:01.406Z,28.52
2018-08-22T08:27:30.355Z,27.62
2018-08-22T08:29:59.576Z,27.87
2018-08-22T08:32:28.958Z,27.91
2018-08-22T08:34:58.282Z,28.03
2018-08-22T08:37:27.523Z,28.98
2018-08-22T08:39:56.784Z,28.91
2018-08-22T08:42:26.185Z,28.74
2018-08-22T08:44:55.586Z,28.86
2018-08-22T08:47:25.206Z,28.95
2018-08-22T08:49:54.660Z,29.04
2018-08-22T08:52:23.848Z,28.94
2018-08-22T08:54:54.090Z,29.19
2018-08-22T08:57:23.334Z,28.22
2018-08-22T08:59:52.633Z,28.60
2018-08-22T09:02:22.078Z,28.13
2018-08-22T09:04:51.262Z,29.21
2018-08-22T09:07:20.626Z,29.84
2018-08-22T09:09:49.951Z,29.86
2018-08-22T09:12:19.357Z,30.62
2018-08-22T09:14:48.502Z,30.39
2018-08-22T09:17:17.951Z,30.15
2018-08-22T09:19:47.573Z,30.16
2018-08-22T09:22:16.945Z,29.43
2018-08-22T09:24:46.259Z,29.91
2018-08-22T09:27:15.740Z,30.41
2018-08-22T09:29:44.887Z,28.94
2018-08-22T09:32:14.036Z,30.20
2018-08-22T09:34:43.637Z,30.75
2018-08-22T09:37:12.947Z,30.83
2018-08-22T09:39:42.257Z,31.14
2018-08-22T09:42:11.618Z,30.26
2018-08-22T09:44:40.705Z,30.50
2018-08-22T09:47:10.034Z,31.85
2018-08-22T09:49:39.344Z,30.37
2018-08-22T09:52:08.813Z,30.79
2018-08-22T09:54:51.873Z,30.48
2018-08-22T09:57:21.110Z,30.69
2018-08-22T09:59:50.543Z,31.60
2018-08-22T10:02:19.829Z,30.62
2018-08-22T10:04:49.214Z,30.59
2018-08-22T10:07:18.542Z,30.99
2018-08-22T10:09:47.848Z,31.95
2018-08-22T10:12:17.308Z,30.34
2018-08-22T10:14:46.866Z,31.25
2018-08-22T10:17:16.323Z,31.11
2018-08-22T10:19:45.692Z,31.62
2018-08-22T10:22:14.826Z,32.93
2018-08-22T10:24:44.160Z,32.53
2018-08-22T10:27:13.524Z,31.83
2018-08-22T10:29:42.990Z,31.63
2018-08-22T10:32:12.365Z,32.64
2018-08-22T10:34:41.642Z,32.52
2018-08-22T10:37:10.805Z,32.28
2018-08-22T10:39:40.026Z,31.90
2018-08-22T10:42:09.501Z,32.65
2018-08-22T10:44:38.626Z,32.41
2018-08-22T10:47:08.114Z,32.52
2018-08-22T10:49:37.273Z,31.13
2018-08-22T10:52:06.609Z,31.76
2018-08-22T10:54:35.878Z,33.39
2018-08-22T10:57:05.660Z,33.19
2018-08-22T10:59:35.174Z,32.42
2018-08-22T11:02:04.554Z,33.07
2018-08-22T11:04:33.767Z,34.13
2018-08-22T11:07:03.025Z,33.77
2018-08-22T11:09:32.525Z,33.25
2018-08-22T11:12:01.931Z,33.64
2018-08-22T11:14:31.288Z,34.26
2018-08-22T11:17:00.843Z,33.81
2018-08-22T11:19:30.144Z,31.56
2018-08-22T11:22:10.323Z,31.85
2018-08-22T11:24:50.557Z,33.08
2018-08-22T11:27:30.817Z,32.23
2018-08-22T11:30:11.172Z,32.22
2018-08-22T11:32:51.427Z,32.63
2018-08-22T11:35:20.143Z,32.13
2018-08-22T11:37:49.699Z,32.40
2018-08-22T11:40:19.132Z,32.64
2018-08-22T11:42:48.632Z,34.45
2018-08-22T11:45:17.989Z,33.00
2018-08-22T11:47:47.188Z,32.39
2018-08-22T11:50:16.487Z,32.82
2018-08-22T11:52:45.950Z,34.13
2018-08-22T11:55:15.381Z,35.08
2018-08-22T11:57:44.889Z,35.33
2018-08-22T12:00:14.150Z,36.18
2018-08-22T12:02:43.471Z,35.94
2018-08-22T12:05:12.860Z,37.19
2018-08-22T12:07:42.358Z,36.26
2018-08-22T12:10:11.654Z,37.13
2018-08-22T12:12:41.010Z,34.60
2018-08-22T12:15:10.541Z,34.08
2018-08-22T12:17:39.770Z,33.32
2018-08-22T12:20:08.917Z,33.53
2018-08-22T12:22:38.194Z,36.08
2018-08-22T12:25:07.509Z,37.28
2018-08-22T12:27:36.888Z,37.66
2018-08-22T12:30:06.407Z,35.42
2018-08-22T12:32:35.764Z,37.27
2018-08-22T12:35:05.013Z,37.48
2018-08-22T12:37:34.403Z,37.05
2018-08-22T12:40:03.936Z,36.52
2018-08-22T12:42:33.284Z,36.86
2018-08-22T12:45:02.564Z,34.49
2018-08-22T12:47:31.963Z,35.31
2018-08-22T12:50:01.256Z,33.36
2018-08-22T12:52:30.586Z,33.15
2018-08-22T12:55:00.282Z,32.98
2018-08-22T12:57:29.545Z,34.91
2018-08-22T12:59:58.801Z,35.30
2018-08-22T13:02:28.235Z,33.53
2018-08-22T13:04:57.216Z,34.51
2018-08-22T13:07:26.241Z,35.15
2018-08-22T13:09:55.184Z,37.13
2018-08-22T13:12:24.209Z,35.93
2018-08-22T13:14:53.475Z,34.50
2018-08-22T13:17:22.762Z,34.69
2018-08-22T13:19:51.985Z,35.75
2018-08-22T13:22:21.271Z,34.85
2018-08-22T13:24:50.621Z,37.58
2018-08-22T13:27:19.572Z,36.72
2018-08-22T13:29:48.875Z,34.96
2018-08-22T13:32:17.822Z,35.55
2018-08-22T13:34:46.811Z,34.47
2018-08-22T13:37:15.787Z,34.89
2018-08-22T13:39:44.955Z,34.20
2018-08-22T13:42:14.306Z,35.95
2018-08-22T13:44:43.841Z,37.25
2018-08-22T13:47:13.259Z,35.58
2018-08-22T13:49:42.576Z,36.38
2018-08-22T13:52:12.002Z,37.47
2018-08-22T13:54:41.258Z,38.91
2018-08-22T13:57:10.565Z,37.94
2018-08-22T13:59:39.780Z,36.08
2018-08-22T14:02:09.153Z,35.34
2018-08-22T14:04:38.138Z,34.68
2018-08-22T14:07:07.126Z,35.05
2018-08-22T14:09:36.122Z,35.27
2018-08-22T14:12:05.033Z,34.69
2018-08-22T14:14:34.106Z,34.49
2018-08-22T14:17:03.093Z,34.89
2018-08-22T14:19:32.064Z,36.43
2018-08-22T14:22:01.062Z,36.48
2018-08-22T14:24:30.078Z,36.20
2018-08-22T14:26:59.093Z,35.92
2018-08-22T14:29:28.069Z,36.11
2018-08-22T14:31:57.181Z,36.52
2018-08-22T14:34:26.723Z,36.53
2018-08-22T14:36:56.177Z,36.47
2018-08-22T14:39:25.381Z,36.12
2018-08-22T14:41:54.562Z,38.00
2018-08-22T14:44:23.881Z,37.47
2018-08-22T14:46:52.915Z,36.96
2018-08-22T14:49:21.965Z,36.63
2018-08-22T14:51:50.923Z,36.50
2018-08-22T14:54:19.937Z,36.85
2018-08-22T14:56:48.914Z,36.40
2018-08-22T14:59:17.930Z,36.18
2018-08-22T15:01:46.964Z,35.87
2018-08-22T15:04:15.952Z,35.85
2018-08-22T15:06:45.140Z,35.53
2018-08-22T15:09:18.475Z,36.27
2018-08-22T15:11:47.673Z,36.15
2018-08-22T15:14:16.678Z,36.30
2018-08-22T15:16:45.661Z,34.56
2018-08-22T15:19:14.682Z,33.97
2018-08-22T15:21:43.766Z,33.69
2018-08-22T15:24:12.802Z,34.68
2018-08-22T15:26:41.941Z,36.60
2018-08-22T15:29:11.014Z,32.54
2018-08-22T15:31:40.067Z,35.28
2018-08-22T15:34:09.093Z,35.96
2018-08-22T15:36:38.356Z,35.14
2018-08-22T15:39:09.497Z,34.43
2018-08-22T15:41:38.569Z,36.43
2018-08-22T15:44:07.637Z,34.77
2018-08-22T15:46:36.651Z,35.45
2018-08-22T15:49:05.608Z,36.73
2018-08-22T15:51:34.626Z,37.38
2018-08-22T15:54:12.978Z,37.43
2018-08-22T15:56:42.628Z,37.18
2018-08-22T15:59:12.836Z,35.98
2018-08-22T16:01:42.361Z,34.45
2018-08-22T16:04:11.422Z,34.31
2018-08-22T16:06:40.510Z,34.79
2018-08-22T16:09:16.043Z,35.65
2018-08-22T16:11:45.215Z,35.78
2018-08-22T16:14:14.302Z,36.08
2018-08-22T16:16:43.320Z,35.55
2018-08-22T16:19:12.386Z,35.68
2018-08-22T16:21:41.324Z,35.63
2018-08-22T16:24:10.422Z,34.46
2018-08-22T16:26:39.383Z,34.07
2018-08-22T16:29:08.501Z,34.16
2018-08-22T16:31:42.610Z,34.00
2018-08-22T16:34:12.290Z,33.94
2018-08-22T16:36:41.372Z,33.80
2018-08-22T16:39:10.925Z,34.78
2018-08-22T16:41:40.182Z,35.26
2018-08-22T16:44:10.155Z,35.42
2018-08-22T16:46:39.123Z,35.71
2018-08-22T16:49:08.090Z,35.27
2018-08-22T16:51:37.149Z,35.14
2018-08-22T16:54:09.132Z,35.33
2018-08-22T16:56:38.525Z,34.12
2018-08-22T16:59:14.193Z,35.40
2018-08-22T17:01:48.189Z,34.99
2018-08-22T17:04:17.284Z,35.42
2018-08-22T17:06:46.473Z,34.21
2018-08-22T17:09:15.478Z,33.89
2018-08-22T17:11:44.804Z,33.78
2018-08-22T17:14:14.058Z,33.85
2018-08-22T17:16:43.623Z,34.56
2018-08-22T17:19:12.867Z,32.73
2018-08-22T17:21:41.985Z,34.34
2018-08-22T17:24:11.233Z,34.77
2018-08-22T17:26:40.833Z,33.98
2018-08-22T17:29:10.209Z,34.55
2018-08-22T17:31:39.561Z,34.63
2018-08-22T17:34:08.490Z,34.34
2018-08-22T17:36:37.538Z,34.78
2018-08-22T17:39:07.820Z,34.52
2018-08-22T17:41:36.805Z,34.49
2018-08-22T17:44:11.567Z,34.33
2018-08-22T17:46:44.840Z,34.35
2018-08-22T17:49:13.808Z,34.25
2018-08-22T17:51:56.009Z,34.17
2018-08-22T17:54:25.447Z,33.87
2018-08-22T17:57:06.059Z,33.72
2018-08-22T17:59:35.466Z,33.81
2018-08-22T18:02:04.588Z,33.87
2018-08-22T18:04:44.843Z,33.86
2018-08-22T18:07:14.413Z,33.75
2018-08-22T18:09:43.635Z,33.89
2018-08-22T18:12:12.644Z,33.73
2018-08-22T18:14:41.628Z,33.75
2018-08-22T18:17:10.654Z,33.41
2018-08-22T18:19:40.152Z,33.22
2018-08-22T18:22:09.788Z,33.18
2018-08-22T18:24:44.292Z,33.15
2018-08-22T18:27:13.396Z,32.91
2018-08-22T18:29:44.875Z,32.83
2018-08-22T18:32:14.460Z,32.11
2018-08-22T18:34:56.448Z,32.52
2018-08-22T18:37:26.354Z,32.49
2018-08-22T18:40:25.007Z,32.59
2018-08-22T18:43:00.924Z,32.24
2018-08-22T18:45:30.273Z,31.85
2018-08-22T18:48:00.774Z,32.24
2018-08-22T18:50:29.757Z,32.07
2018-08-22T18:53:00.067Z,32.09
2018-08-22T18:55:30.453Z,31.67
2018-08-22T18:58:01.174Z,31.96
2018-08-22T19:00:30.218Z,31.56
2018-08-22T19:02:59.640Z,31.77
2018-08-22T19:05:30.907Z,31.55
2018-08-22T19:08:05.238Z,31.41
2018-08-22T19:10:37.211Z,31.49
2018-08-22T19:13:11.329Z,31.31
2018-08-22T19:15:40.280Z,31.17
2018-08-22T19:18:10.299Z,31.17
2018-08-22T19:20:39.394Z,30.88
2018-08-22T19:23:08.369Z,31.11
2018-08-22T19:25:37.441Z,31.02
2018-08-22T19:28:06.463Z,31.05
2018-08-22T19:30:36.559Z,30.81
2018-08-22T19:33:08.615Z,30.97
2018-08-22T19:35:37.992Z,30.84
2018-08-22T19:38:07.851Z,30.60
2018-08-22T19:40:37.513Z,30.50
2018-08-22T19:43:06.462Z,30.21
2018-08-22T19:45:36.698Z,30.01
2018-08-22T19:48:05.782Z,30.33
2018-08-22T19:50:34.872Z,30.19
2018-08-22T19:53:03.832Z,30.36
2018-08-22T19:55:33.473Z,30.47
2018-08-22T19:58:02.515Z,30.41
2018-08-22T20:00:31.553Z,30.33
2018-08-22T20:03:00.503Z,30.13
2018-08-22T20:06:04.494Z,30.00
2018-08-22T20:08:37.769Z,30.02
2018-08-22T20:11:07.273Z,30.04
2018-08-22T20:13:49.356Z,29.78
2018-08-22T20:16:19.617Z,29.51
2018-08-22T20:18:55.325Z,29.77
2018-08-22T20:21:40.437Z,29.68
2018-08-22T20:24:11.139Z,29.68
2018-08-22T20:26:49.527Z,29.56
2018-08-22T20:29:18.422Z,29.38
2018-08-22T20:31:47.475Z,29.26
2018-08-22T20:34:16.949Z,29.25
2018-08-22T20:36:47.657Z,29.50
2018-08-22T20:39:16.777Z,29.11
2018-08-22T20:41:46.004Z,29.28
2018-08-22T20:44:17.427Z,29.28
2018-08-22T20:46:47.626Z,29.17
2018-08-22T20:49:18.831Z,29.09
2018-08-22T20:51:48.107Z,29.00
2018-08-22T20:54:22.607Z,28.99
2018-08-22T20:56:56.746Z,28.85
2018-08-22T20:59:25.834Z,28.91
2018-08-22T21:02:06.223Z,28.77
2018-08-22T21:04:36.154Z,28.61
2018-08-22T21:07:05.542Z,28.63
2018-08-22T21:09:34.534Z,28.51
2018-08-22T21:12:04.881Z,28.50
2018-08-22T21:14:33.863Z,28.36
2018-08-22T21:17:02.861Z,28.48
2018-08-22T21:19:31.825Z,28.49
2018-08-22T21:22:00.849Z,28.41
2018-08-22T21:24:29.842Z,28.37
2018-08-22T21:26:58.835Z,28.30
2018-08-22T21:29:27.858Z,28.37
2018-08-22T21:31:56.874Z,28.38
2018-08-22T21:34:25.953Z,28.09
2018-08-22T21:36:54.986Z,28.02
2018-08-22T21:39:27.155Z,27.92
2018-08-22T21:41:56.292Z,27.47
2018-08-22T21:44:25.413Z,27.55
2018-08-22T21:47:00.877Z,27.95
2018-08-22T21:49:30.512Z,27.99
2018-08-22T21:52:01.014Z,27.97
2018-08-22T21:54:30.050Z,27.82
2018-08-22T21:56:59.101Z,27.55
2018-08-22T21:59:28.202Z,27.79
2018-08-22T22:02:02.288Z,27.77
2018-08-22T22:04:33.835Z,27.66
2018-08-22T22:07:03.899Z,27.60
2018-08-22T22:09:32.845Z,27.73
2018-08-22T22:12:02.512Z,27.61
2018-08-22T22:14:32.554Z,27.42
2018-08-22T22:17:02.615Z,27.43
2018-08-22T22:19:33.707Z,27.26
2018-08-22T22:22:03.428Z,27.44
2018-08-22T22:24:32.505Z,27.43
2018-08-22T22:27:01.454Z,27.20
2018-08-22T22:29:31.987Z,27.27
2018-08-22T22:32:00.930Z,27.27
2018-08-22T22:34:30.026Z,27.30
2018-08-22T22:36:58.994Z,27.11
2018-08-22T22:39:43.847Z,27.26
2018-08-22T22:42:20.781Z,27.10
2018-08-22T22:44:51.058Z,27.07
2018-08-22T22:47:25.249Z,26.89
2018-08-22T22:49:54.345Z,27.05
2018-08-22T22:52:30.320Z,26.83
2018-08-22T22:55:00.498Z,26.80
2018-08-22T22:57:31.221Z,26.88
2018-08-22T23:00:00.725Z,26.76
2018-08-22T23:02:30.253Z,26.76
2018-08-22T23:04:59.979Z,26.74
2018-08-22T23:07:34.314Z,26.69
2018-08-22T23:10:05.436Z,26.61
2018-08-22T23:12:40.980Z,26.74
2018-08-22T23:15:12.461Z,26.69
2018-08-22T23:17:41.862Z,26.51
2018-08-22T23:20:44.455Z,26.74
2018-08-22T23:23:27.471Z,26.56
2018-08-22T23:25:58.966Z,26.56
2018-08-22T23:28:28.149Z,26.49
2018-08-22T23:30:57.140Z,26.47
2018-08-22T23:33:26.094Z,26.29
2018-08-22T23:35:55.102Z,26.53
2018-08-22T23:38:30.674Z,26.56
2018-08-22T23:41:00.273Z,26.50
2018-08-22T23:43:39.038Z,26.33
2018-08-22T23:46:09.144Z,26.41
2018-08-22T23:48:38.441Z,26.30
2018-08-22T23:51:11.237Z,26.31
2018-08-22T23:53:45.677Z,26.21
2018-08-22T23:56:24.850Z,26.34
2018-08-22T23:58:54.753Z,26.14
